createdAt,value
2023-10-21T00:01:58.913Z,98073.28
2023-10-21T00:04:45.172Z,98114.63
2023-10-21T00:07:32.353Z,98110.41
2023-10-21T00:10:18.630Z,98123.97
2023-10-21T00:13:05.224Z,98131.66
2023-10-21T00:15:50.839Z,98093.25
2023-10-21T00:18:36.815Z,98095.19
2023-10-21T00:21:23.064Z,98105.13
2023-10-21T00:24:09.338Z,98065.25
2023-10-21T00:26:55.389Z,98075.13
2023-10-21T00:29:41.266Z,98096.63
2023-10-21T00:32:26.781Z,98089.31
2023-10-21T00:35:13.213Z,98092.38
2023-10-21T00:37:59.172Z,98101.94
2023-10-21T00:40:56.910Z,98094.38
2023-10-21T00:43:43.890Z,98043.78
2023-10-21T00:46:29.743Z,98090.25
2023-10-21T00:49:15.520Z,98110.34
2023-10-21T00:52:02.114Z,98102.19
2023-10-21T00:54:47.706Z,98055.84
2023-10-21T00:57:33.701Z,98095.22
2023-10-21T01:00:20.128Z,98088.19
2023-10-21T01:03:06.449Z,98090.38
2023-10-21T01:05:53.935Z,98056.97
2023-10-21T01:08:49.591Z,98093.91
2023-10-21T01:11:35.848Z,98090.84
2023-10-21T01:14:22.008Z,98058.56
2023-10-21T01:17:09.580Z,98046.50
2023-10-21T01:19:59.195Z,98069.47
2023-10-21T01:22:45.609Z,98084.72
2023-10-21T01:25:33.596Z,98118.34
2023-10-21T01:28:19.143Z,98072.44
2023-10-21T01:31:05.670Z,98079.16
2023-10-21T01:33:51.151Z,98111.44
2023-10-21T01:36:37.503Z,98075.63
2023-10-21T01:39:23.057Z,98083.16
2023-10-21T01:42:09.597Z,98077.38
2023-10-21T01:44:56.771Z,98085.41
2023-10-21T01:47:43.008Z,98089.41
2023-10-21T01:50:29.525Z,98075.78
2023-10-21T01:53:15.498Z,98095.84
2023-10-21T01:56:04.898Z,98084.50
2023-10-21T01:58:50.736Z,98086.44
2023-10-21T02:01:36.475Z,98095.97
2023-10-21T02:04:22.686Z,98113.47
2023-10-21T02:07:08.942Z,98101.41
2023-10-21T02:09:55.243Z,98122.75
2023-10-21T02:12:41.329Z,98127.06
2023-10-21T02:15:27.145Z,98123.56
2023-10-21T02:18:12.788Z,98132.31
2023-10-21T02:20:59.647Z,98145.78
2023-10-21T02:23:45.780Z,98123.97
2023-10-21T02:26:31.586Z,98177.44
2023-10-21T02:29:17.366Z,98150.56
2023-10-21T02:32:05.156Z,98139.09
2023-10-21T02:34:54.986Z,98166.28
2023-10-21T02:37:41.895Z,98171.63
2023-10-21T02:40:27.713Z,98171.09
2023-10-21T02:43:14.007Z,98174.50
2023-10-21T02:46:13.680Z,98191.09
2023-10-21T02:49:00.049Z,98150.94
2023-10-21T02:51:45.587Z,98179.84
2023-10-21T02:54:32.295Z,98151.56
2023-10-21T02:57:18.246Z,98163.84
2023-10-21T03:00:07.162Z,98150.31
2023-10-21T03:02:53.311Z,98183.94
2023-10-21T03:05:40.684Z,98171.78
2023-10-21T03:08:26.177Z,98191.31
2023-10-21T03:11:12.373Z,98208.97
2023-10-21T03:13:59.063Z,98220.44
2023-10-21T03:16:45.724Z,98185.41
2023-10-21T03:19:31.354Z,98218.16
2023-10-21T03:22:17.850Z,98219.75
2023-10-21T03:25:03.759Z,98215.44
2023-10-21T03:27:50.042Z,98226.81
2023-10-21T03:30:35.766Z,98206.81
2023-10-21T03:33:21.674Z,98196.59
2023-10-21T03:36:08.599Z,98214.75
2023-10-21T03:38:54.755Z,98192.03
2023-10-21T03:41:41.190Z,98216.00
2023-10-21T03:44:27.357Z,98219.06
2023-10-21T03:47:13.141Z,98209.75
2023-10-21T03:49:59.164Z,98191.53
2023-10-21T03:52:44.655Z,98242.38
2023-10-21T03:55:30.781Z,98229.53
2023-10-21T03:58:16.529Z,98216.13
2023-10-21T04:01:02.438Z,98218.88
2023-10-21T04:03:48.449Z,98261.19
2023-10-21T04:06:34.439Z,98224.09
2023-10-21T04:09:20.146Z,98247.56
2023-10-21T04:12:06.437Z,98206.88
2023-10-21T04:14:52.356Z,98213.69
2023-10-21T04:17:39.601Z,98203.88
2023-10-21T04:20:25.249Z,98234.69
2023-10-21T04:23:11.039Z,98250.28
2023-10-21T04:25:56.717Z,98255.16
2023-10-21T04:28:43.449Z,98255.28
2023-10-21T04:31:35.191Z,98216.41
2023-10-21T04:34:22.624Z,98247.44
2023-10-21T04:37:08.865Z,98237.66
2023-10-21T04:39:55.187Z,98232.66
2023-10-21T04:42:40.749Z,98187.50
2023-10-21T04:45:27.012Z,98229.38
2023-10-21T04:48:12.950Z,98254.38
2023-10-21T04:50:59.133Z,98266.53
2023-10-21T04:53:44.690Z,98232.88
2023-10-21T04:56:30.536Z,98258.00
2023-10-21T04:59:16.089Z,98213.19
2023-10-21T05:02:02.317Z,98209.09
2023-10-21T05:04:49.608Z,98237.78
2023-10-21T05:07:35.634Z,98252.09
2023-10-21T05:10:22.550Z,98242.19
2023-10-21T05:13:09.553Z,98238.22
2023-10-21T05:15:55.787Z,98222.75
2023-10-21T05:18:41.864Z,98207.97
2023-10-21T05:21:27.929Z,98249.25
2023-10-21T05:24:13.978Z,98191.13
2023-10-21T05:27:00.287Z,98225.22
2023-10-21T05:29:46.416Z,98268.69
2023-10-21T05:32:32.110Z,98244.66
2023-10-21T05:35:18.730Z,98286.63
2023-10-21T05:38:04.484Z,98249.31
2023-10-21T05:40:50.567Z,98232.38
2023-10-21T05:43:37.641Z,98224.28
2023-10-21T05:46:23.836Z,98234.06
2023-10-21T05:49:09.869Z,98246.69
2023-10-21T05:51:57.227Z,98210.50
2023-10-21T05:54:43.463Z,98267.38
2023-10-21T05:57:29.952Z,98277.25
2023-10-21T06:00:16.381Z,98309.28
2023-10-21T06:03:03.398Z,98364.69
2023-10-21T06:05:50.096Z,98380.72
2023-10-21T06:08:36.045Z,98410.31
2023-10-21T06:11:21.697Z,98422.41
2023-10-21T06:14:07.971Z,98430.50
2023-10-21T06:16:53.674Z,98413.31
2023-10-21T06:19:40.528Z,98389.63
2023-10-21T06:22:27.478Z,98412.03
2023-10-21T06:25:17.330Z,98392.59
2023-10-21T06:28:03.193Z,98392.09
2023-10-21T06:30:49.355Z,98398.34
2023-10-21T06:33:36.778Z,98419.88
2023-10-21T06:36:23.726Z,98437.44
2023-10-21T06:39:09.609Z,98458.09
2023-10-21T06:41:58.583Z,98468.56
2023-10-21T06:44:44.932Z,98459.72
2023-10-21T06:47:31.689Z,98430.94
2023-10-21T06:50:20.306Z,98453.72
2023-10-21T06:53:08.046Z,98446.22
2023-10-21T06:55:55.709Z,98439.16
2023-10-21T06:58:42.609Z,98442.41
2023-10-21T07:01:28.613Z,98450.97
2023-10-21T07:04:16.063Z,98439.03
2023-10-21T07:07:02.754Z,98438.56
2023-10-21T07:09:48.919Z,98430.16
2023-10-21T07:12:39.955Z,98445.66
2023-10-21T07:15:32.546Z,98396.13
2023-10-21T07:18:19.316Z,98448.38
2023-10-21T07:21:06.352Z,98428.44
2023-10-21T07:23:52.422Z,98456.47
2023-10-21T07:26:41.283Z,98458.28
2023-10-21T07:29:26.906Z,98470.13
2023-10-21T07:32:13.075Z,98478.19
2023-10-21T07:34:58.958Z,98483.31
2023-10-21T07:37:48.207Z,98476.66
2023-10-21T07:40:33.775Z,98461.41
2023-10-21T07:43:19.646Z,98478.66
2023-10-21T07:46:06.065Z,98490.63
2023-10-21T07:48:53.187Z,98490.72
2023-10-21T07:51:39.342Z,98492.19
2023-10-21T07:54:25.437Z,98457.19
2023-10-21T07:57:11.091Z,98504.94
2023-10-21T07:59:57.779Z,98489.84
2023-10-21T08:02:44.477Z,98507.69
2023-10-21T08:05:31.121Z,98500.41
2023-10-21T08:08:17.016Z,98508.38
2023-10-21T08:11:04.111Z,98507.59
2023-10-21T08:13:52.012Z,98508.06
2023-10-21T08:16:38.556Z,98519.88
2023-10-21T08:19:25.992Z,98521.13
2023-10-21T08:22:12.244Z,98513.38
2023-10-21T08:24:59.244Z,98535.94
2023-10-21T08:27:45.953Z,98507.91
2023-10-21T08:30:32.114Z,98555.31
2023-10-21T08:33:18.648Z,98509.06
2023-10-21T08:36:05.523Z,98557.59
2023-10-21T08:38:51.806Z,98572.50
2023-10-21T08:41:41.357Z,98575.59
2023-10-21T08:44:27.810Z,98580.63
2023-10-21T08:47:15.763Z,98586.31
2023-10-21T08:50:05.183Z,98579.56
2023-10-21T08:52:51.830Z,98583.56
2023-10-21T08:55:40.341Z,98572.75
2023-10-21T08:58:32.391Z,98606.22
2023-10-21T09:01:18.811Z,98601.00
2023-10-21T09:04:05.590Z,98620.00
2023-10-21T09:06:59.314Z,98606.56
2023-10-21T09:09:45.071Z,98617.28
2023-10-21T09:12:31.909Z,98602.25
2023-10-21T09:15:18.105Z,98605.22
2023-10-21T09:18:12.155Z,98635.19
2023-10-21T09:20:58.358Z,98646.47
2023-10-21T09:23:52.616Z,98648.72
2023-10-21T09:26:40.384Z,98616.75
2023-10-21T09:29:27.904Z,98583.56
2023-10-21T09:32:15.098Z,98619.25
2023-10-21T09:35:39.775Z,98632.47
2023-10-21T09:38:26.112Z,98616.16
2023-10-21T09:41:15.032Z,98637.72
2023-10-21T09:44:04.114Z,98661.97
2023-10-21T09:46:50.677Z,98626.19
2023-10-21T09:49:40.710Z,98630.97
2023-10-21T09:52:31.668Z,98648.28
2023-10-21T09:55:19.334Z,98619.31
2023-10-21T09:58:06.476Z,98654.28
2023-10-21T10:00:52.510Z,98650.84
2023-10-21T10:03:40.591Z,98639.44
2023-10-21T10:06:30.534Z,98658.22
2023-10-21T10:09:23.401Z,98603.91
2023-10-21T10:12:25.380Z,98655.63
2023-10-21T10:15:38.949Z,98662.31
2023-10-21T10:18:26.673Z,98650.78
2023-10-21T10:21:16.331Z,98632.31
2023-10-21T10:24:05.217Z,98643.41
2023-10-21T10:26:53.134Z,98627.78
2023-10-21T10:29:39.225Z,98610.47
2023-10-21T10:32:30.837Z,98610.47
2023-10-21T10:35:34.078Z,98637.25
2023-10-21T10:38:33.689Z,98634.75
2023-10-21T10:41:20.191Z,98670.47
2023-10-21T10:44:07.385Z,98675.09
2023-10-21T10:46:54.993Z,98665.19
2023-10-21T10:50:00.960Z,98681.97
2023-10-21T10:52:47.506Z,98676.84
2023-10-21T10:55:33.950Z,98674.88
2023-10-21T10:58:20.121Z,98678.19
2023-10-21T11:01:09.315Z,98700.44
2023-10-21T11:04:01.983Z,98711.91
2023-10-21T11:06:49.097Z,98702.22
2023-10-21T11:09:35.274Z,98687.88
2023-10-21T11:12:21.812Z,98717.97
2023-10-21T11:15:08.216Z,98722.06
2023-10-21T11:17:55.132Z,98717.59
2023-10-21T11:20:48.372Z,98731.97
2023-10-21T11:23:38.789Z,98732.22
2023-10-21T11:26:24.305Z,98712.28
2023-10-21T11:29:18.931Z,98733.19
2023-10-21T11:32:05.175Z,98735.69
2023-10-21T11:34:51.127Z,98732.94
2023-10-21T11:37:43.738Z,98762.22
2023-10-21T11:40:31.357Z,98741.50
2023-10-21T11:43:18.908Z,98772.50
2023-10-21T11:46:06.998Z,98759.81
2023-10-21T11:48:52.854Z,98768.81
2023-10-21T11:51:39.368Z,98766.50
2023-10-21T11:54:34.869Z,98721.25
2023-10-21T11:57:41.309Z,98732.50
2023-10-21T12:00:47.997Z,98695.72
2023-10-21T12:03:53.413Z,98750.06
2023-10-21T12:07:11.574Z,98761.66
2023-10-21T12:10:10.086Z,98776.19
2023-10-21T12:13:11.057Z,98774.59
2023-10-21T12:16:16.465Z,98770.34
2023-10-21T12:19:20.841Z,98802.41
2023-10-21T12:22:26.713Z,98781.75
2023-10-21T12:25:36.637Z,98782.56
2023-10-21T12:28:34.822Z,98819.16
2023-10-21T12:31:27.104Z,98815.06
2023-10-21T12:34:31.839Z,98808.25
2023-10-21T12:37:21.675Z,98835.13
2023-10-21T12:40:34.541Z,98770.97
2023-10-21T12:43:25.783Z,98809.44
2023-10-21T12:46:23.606Z,98840.47
2023-10-21T12:49:26.008Z,98824.50
2023-10-21T12:52:13.796Z,98840.81
2023-10-21T12:55:00.892Z,98819.41
2023-10-21T12:57:51.493Z,98836.38
2023-10-21T13:00:38.168Z,98815.63
2023-10-21T13:03:24.988Z,98833.53
2023-10-21T13:06:11.294Z,98854.28
2023-10-21T13:08:58.345Z,98847.91
2023-10-21T13:11:43.902Z,98845.50
2023-10-21T13:14:29.896Z,98859.06
2023-10-21T13:17:15.576Z,98851.69
2023-10-21T13:20:01.380Z,98867.41
2023-10-21T13:22:49.426Z,98874.41
2023-10-21T13:25:37.539Z,98891.75
2023-10-21T13:28:23.374Z,98887.94
2023-10-21T13:31:10.549Z,98874.41
2023-10-21T13:33:56.717Z,98878.38
2023-10-21T13:36:43.016Z,98892.06
2023-10-21T13:39:32.070Z,98878.47
2023-10-21T13:42:18.943Z,98867.56
2023-10-21T13:45:06.953Z,98860.28
2023-10-21T13:47:57.135Z,98909.56
2023-10-21T13:50:44.423Z,98912.56
2023-10-21T13:53:33.753Z,98910.59
2023-10-21T13:56:19.889Z,98910.53
2023-10-21T13:59:17.071Z,98923.19
2023-10-21T14:02:02.877Z,98906.00
2023-10-21T14:04:49.345Z,98923.56
2023-10-21T14:07:35.607Z,98915.13
2023-10-21T14:10:21.949Z,98910.09
2023-10-21T14:13:09.212Z,98920.56
2023-10-21T14:15:59.213Z,98920.56
2023-10-21T14:18:46.036Z,98909.72
2023-10-21T14:21:34.347Z,98928.16
2023-10-21T14:24:20.659Z,98937.28
2023-10-21T14:27:09.427Z,98953.50
2023-10-21T14:30:11.376Z,98951.34
2023-10-21T14:32:57.545Z,98911.97
2023-10-21T14:35:45.444Z,98935.13
2023-10-21T14:38:31.764Z,98957.03
2023-10-21T14:41:17.827Z,98955.34
2023-10-21T14:44:04.409Z,98947.56
2023-10-21T14:46:50.420Z,98940.28
2023-10-21T14:49:37.202Z,98940.72
2023-10-21T14:52:24.184Z,98936.56
2023-10-21T14:55:10.460Z,98934.53
2023-10-21T14:57:56.193Z,98932.03
2023-10-21T15:00:43.944Z,98926.22
2023-10-21T15:03:30.462Z,98954.53
2023-10-21T15:06:16.667Z,98966.31
2023-10-21T15:09:02.823Z,98965.88
2023-10-21T15:11:49.212Z,98967.72
2023-10-21T15:14:45.782Z,98953.03
2023-10-21T15:17:42.341Z,98984.78
2023-10-21T15:20:29.956Z,99006.16
2023-10-21T15:23:15.978Z,98994.50
2023-10-21T15:26:02.105Z,99017.81
2023-10-21T15:28:48.551Z,98980.13
2023-10-21T15:31:36.477Z,99011.91
2023-10-21T15:34:25.046Z,99001.38
2023-10-21T15:37:11.646Z,99002.19
2023-10-21T15:39:57.965Z,98959.97
2023-10-21T15:42:45.069Z,99033.75
2023-10-21T15:45:31.588Z,99029.06
2023-10-21T15:48:17.447Z,99015.81
2023-10-21T15:51:15.016Z,99010.34
2023-10-21T15:54:01.282Z,99028.97
2023-10-21T15:56:50.352Z,99035.25
2023-10-21T15:59:36.373Z,99018.66
2023-10-21T16:02:23.379Z,99041.88
2023-10-21T16:05:10.034Z,99037.75
2023-10-21T16:07:58.207Z,99038.56
2023-10-21T16:10:45.139Z,99024.28
2023-10-21T16:13:31.658Z,99052.06
2023-10-21T16:16:22.960Z,99055.13
2023-10-21T16:19:09.690Z,99067.38
2023-10-21T16:21:55.558Z,99050.66
2023-10-21T16:24:41.514Z,99021.53
2023-10-21T16:27:27.689Z,99036.03
2023-10-21T16:30:14.104Z,99063.03
2023-10-21T16:33:00.284Z,99047.13
2023-10-21T16:35:47.705Z,99051.09
2023-10-21T16:38:33.607Z,99056.25
2023-10-21T16:41:20.062Z,99055.78
2023-10-21T16:44:05.796Z,99040.81
2023-10-21T16:46:52.187Z,99054.97
2023-10-21T16:49:38.584Z,99018.41
2023-10-21T16:52:27.116Z,99029.50
2023-10-21T16:55:13.384Z,99054.31
2023-10-21T16:57:59.660Z,99055.44
2023-10-21T17:00:45.426Z,99061.94
2023-10-21T17:03:32.042Z,99085.00
2023-10-21T17:06:18.232Z,99068.94
2023-10-21T17:09:07.279Z,99077.34
2023-10-21T17:11:53.079Z,99108.63
2023-10-21T17:14:39.467Z,99119.63
2023-10-21T17:17:26.842Z,99116.63
2023-10-21T17:20:13.320Z,99144.88
2023-10-21T17:22:59.678Z,99155.84
2023-10-21T17:25:47.376Z,99130.16
2023-10-21T17:28:33.980Z,99161.16
2023-10-21T17:31:20.275Z,99163.75
2023-10-21T17:34:06.473Z,99138.09
2023-10-21T17:36:52.672Z,99154.81
2023-10-21T17:39:38.847Z,99125.94
2023-10-21T17:42:25.213Z,99150.47
2023-10-21T17:45:11.495Z,99158.00
2023-10-21T17:47:58.318Z,99172.72
2023-10-21T17:50:44.627Z,99191.56
2023-10-21T17:53:30.406Z,99172.75
2023-10-21T17:56:16.424Z,99147.06
2023-10-21T17:59:02.501Z,99153.13
2023-10-21T18:01:48.736Z,99170.56
2023-10-21T18:04:35.311Z,99166.63
2023-10-21T18:07:23.774Z,99156.47
2023-10-21T18:10:10.444Z,99147.25
2023-10-21T18:12:56.860Z,99158.09
2023-10-21T18:15:42.932Z,99165.75
2023-10-21T18:18:29.367Z,99185.28
2023-10-21T18:21:16.227Z,99190.88
2023-10-21T18:24:02.958Z,99182.19
2023-10-21T18:26:50.578Z,99191.75
2023-10-21T18:29:36.852Z,99195.16
2023-10-21T18:32:23.778Z,99192.69
2023-10-21T18:35:09.447Z,99172.59
2023-10-21T18:38:00.359Z,99196.63
2023-10-21T18:40:47.660Z,99217.09
2023-10-21T18:43:35.000Z,99212.91
2023-10-21T18:46:21.396Z,99202.09
2023-10-21T18:49:08.519Z,99217.56
2023-10-21T18:51:54.745Z,99219.44
2023-10-21T18:54:42.847Z,99219.22
2023-10-21T18:57:57.300Z,99241.44
2023-10-21T19:01:09.662Z,99232.63
2023-10-21T19:04:14.921Z,99256.56
2023-10-21T19:07:02.071Z,99244.97
2023-10-21T19:09:47.799Z,99250.44
2023-10-21T19:12:34.304Z,99254.78
2023-10-21T19:15:20.524Z,99261.53
2023-10-21T19:18:09.045Z,99247.38
2023-10-21T19:20:55.029Z,99264.34
2023-10-21T19:23:41.904Z,99259.06
2023-10-21T19:26:28.264Z,99267.88
2023-10-21T19:29:14.672Z,99266.16
2023-10-21T19:32:01.329Z,99252.66
2023-10-21T19:34:47.763Z,99266.94
2023-10-21T19:37:34.483Z,99273.75
2023-10-21T19:40:22.136Z,99295.69
2023-10-21T19:43:08.477Z,99283.34
2023-10-21T19:45:54.960Z,99289.81
2023-10-21T19:48:40.985Z,99267.94
2023-10-21T19:51:27.804Z,99288.00
2023-10-21T19:54:13.706Z,99287.03
2023-10-21T19:57:00.395Z,99283.63
2023-10-21T19:59:46.098Z,99271.56
2023-10-21T20:02:32.549Z,99272.63
2023-10-21T20:05:18.173Z,99257.31
2023-10-21T20:08:05.093Z,99283.13
2023-10-21T20:11:05.296Z,99271.38
2023-10-21T20:13:58.063Z,99279.16
2023-10-21T20:16:49.059Z,99293.59
2023-10-21T20:19:35.744Z,99242.69
2023-10-21T20:22:21.935Z,99282.91
2023-10-21T20:25:09.628Z,99276.97
2023-10-21T20:27:55.936Z,99272.09
2023-10-21T20:30:46.835Z,99280.19
2023-10-21T20:33:34.606Z,99283.09
2023-10-21T20:36:22.662Z,99244.91
2023-10-21T20:39:09.984Z,99272.06
2023-10-21T20:42:00.286Z,99281.22
2023-10-21T20:44:49.410Z,99295.19
2023-10-21T20:47:35.609Z,99274.84
2023-10-21T20:50:21.681Z,99287.22
2023-10-21T20:53:08.385Z,99296.53
2023-10-21T20:55:54.988Z,99277.25
2023-10-21T20:58:41.387Z,99271.75
2023-10-21T21:01:36.904Z,99272.38
2023-10-21T21:04:25.382Z,99259.19
2023-10-21T21:07:10.968Z,99285.28
2023-10-21T21:10:02.775Z,99271.22
2023-10-21T21:12:51.864Z,99253.22
2023-10-21T21:15:38.707Z,99279.84
2023-10-21T21:18:25.989Z,99271.88
2023-10-21T21:21:13.281Z,99275.03
2023-10-21T21:23:59.074Z,99266.22
2023-10-21T21:26:47.408Z,99271.78
2023-10-21T21:29:33.251Z,99278.44
2023-10-21T21:32:19.686Z,99300.16
2023-10-21T21:35:05.741Z,99280.13
2023-10-21T21:37:52.042Z,99305.00
2023-10-21T21:40:38.300Z,99301.72
2023-10-21T21:43:24.319Z,99285.56
2023-10-21T21:46:23.306Z,99291.84
2023-10-21T21:49:09.679Z,99254.06
2023-10-21T21:51:55.374Z,99303.78
2023-10-21T21:54:43.624Z,99305.28
2023-10-21T21:57:29.359Z,99294.19
2023-10-21T22:00:30.869Z,99291.47
2023-10-21T22:03:16.549Z,99253.88
2023-10-21T22:06:03.900Z,99299.34
2023-10-21T22:08:49.545Z,99283.03
2023-10-21T22:11:35.964Z,99289.28
2023-10-21T22:14:23.299Z,99274.66
2023-10-21T22:17:09.780Z,99280.69
2023-10-21T22:19:56.408Z,99290.56
2023-10-21T22:22:42.547Z,99263.91
2023-10-21T22:25:29.175Z,99279.28
2023-10-21T22:28:16.058Z,99300.31
2023-10-21T22:31:05.397Z,99297.56
2023-10-21T22:33:51.816Z,99288.88
2023-10-21T22:36:37.907Z,99253.34
2023-10-21T22:39:24.469Z,99237.50
2023-10-21T22:42:10.318Z,99277.84
2023-10-21T22:44:57.037Z,99269.00
2023-10-21T22:47:44.939Z,99266.56
2023-10-21T22:50:31.466Z,99230.13
2023-10-21T22:53:19.030Z,99276.69
2023-10-21T22:56:06.491Z,99224.31
2023-10-21T22:58:52.722Z,99279.50
2023-10-21T23:01:40.405Z,99272.56
2023-10-21T23:04:26.954Z,99275.63
2023-10-21T23:07:13.646Z,99275.78
2023-10-21T23:10:00.399Z,99271.91
2023-10-21T23:12:52.301Z,99296.19
2023-10-21T23:15:45.029Z,99302.00
2023-10-21T23:18:31.390Z,99258.22
2023-10-21T23:21:17.347Z,99305.78
2023-10-21T23:24:03.840Z,99256.38
2023-10-21T23:26:49.413Z,99265.56
2023-10-21T23:29:35.764Z,99265.88
2023-10-21T23:32:21.593Z,99263.78
2023-10-21T23:35:09.357Z,99285.16
2023-10-21T23:37:56.248Z,99246.75
2023-10-21T23:40:43.719Z,99247.91
2023-10-21T23:43:29.219Z,99294.44
2023-10-21T23:46:15.393Z,99291.69
2023-10-21T23:49:01.736Z,99276.78
2023-10-21T23:51:48.024Z,99285.94
2023-10-21T23:54:35.338Z,99283.88
2023-10-21T23:57:21.602Z,99291.56
